sensor_id;sensor_type;location;lat;lon;timestamp;pressure;altitude;pressure_sealevel;temperature;humidity
71306;BME280;59097;46.858;18.632;2022-11-20T00:00:31;100105.78;;;1.58;100.00
71306;BME280;59097;46.858;18.632;2022-11-20T00:02:59;100093.53;;;1.59;100.00
71306;BME280;59097;46.858;18.632;2022-11-20T00:05:27;100093.81;;;1.56;100.00
71306;BME280;59097;46.858;18.632;2022-11-20T00:08:10;100081.72;;;1.55;100.00
71306;BME280;59097;46.858;18.632;2022-11-20T00:10:52;100078.16;;;1.56;100.00
71306;BME280;59097;46.858;18.632;2022-11-20T00:13:53;100082.38;;;1.57;100.00
71306;BME280;59097;46.858;18.632;2022-11-20T00:16:24;100080.19;;;1.52;100.00
71306;BME280;59097;46.858;18.632;2022-11-20T00:18:51;100074.03;;;1.53;100.00
71306;BME280;59097;46.858;18.632;2022-11-20T00:21:23;100058.75;;;1.49;100.00
71306;BME280;59097;46.858;18.632;2022-11-20T00:23:51;100053.66;;;1.57;100.00
71306;BME280;59097;46.858;18.632;2022-11-20T00:26:19;100045.56;;;1.50;100.00
71306;BME280;59097;46.858;18.632;2022-11-20T00:28:53;100046.22;;;1.52;100.00
71306;BME280;59097;46.858;18.632;2022-11-20T00:31:23;100056.41;;;1.46;100.00
71306;BME280;59097;46.858;18.632;2022-11-20T00:33:51;100047.06;;;1.43;100.00
71306;BME280;59097;46.858;18.632;2022-11-20T00:36:25;100036.47;;;1.45;100.00
71306;BME280;59097;46.858;18.632;2022-11-20T00:38:55;100042.81;;;1.42;100.00
71306;BME280;59097;46.858;18.632;2022-11-20T00:41:25;100037.44;;;1.53;100.00
71306;BME280;59097;46.858;18.632;2022-11-20T00:43:55;100053.50;;;1.49;100.00
71306;BME280;59097;46.858;18.632;2022-11-20T00:46:25;100045.69;;;1.49;100.00
71306;BME280;59097;46.858;18.632;2022-11-20T00:49:08;100054.63;;;1.46;100.00
71306;BME280;59097;46.858;18.632;2022-11-20T00:52:05;100060.41;;;1.50;100.00
71306;BME280;59097;46.858;18.632;2022-11-20T00:55:02;100069.88;;;1.41;100.00
71306;BME280;59097;46.858;18.632;2022-11-20T00:57:43;100087.38;;;1.50;100.00
71306;BME280;59097;46.858;18.632;2022-11-20T01:00:09;100067.28;;;1.41;100.00
71306;BME280;59097;46.858;18.632;2022-11-20T01:02:36;100087.38;;;1.50;100.00
71306;BME280;59097;46.858;18.632;2022-11-20T01:05:02;100090.81;;;1.51;100.00
71306;BME280;59097;46.858;18.632;2022-11-20T01:07:28;100077.03;;;1.49;100.00
71306;BME280;59097;46.858;18.632;2022-11-20T01:10:01;100071.78;;;2.14;100.00
71306;BME280;59097;46.858;18.632;2022-11-20T01:12:29;100071.78;;;2.14;100.00
71306;BME280;59097;46.858;18.632;2022-11-20T01:14:57;100069.72;;;1.62;100.00
71306;BME280;59097;46.858;18.632;2022-11-20T01:17:25;100074.69;;;1.55;100.00
71306;BME280;59097;46.858;18.632;2022-11-20T01:19:53;100073.88;;;1.55;100.00
71306;BME280;59097;46.858;18.632;2022-11-20T01:22:21;100055.03;;;1.42;100.00
71306;BME280;59097;46.858;18.632;2022-11-20T01:24:49;100069.06;;;1.50;100.00
71306;BME280;59097;46.858;18.632;2022-11-20T01:27:17;100065.47;;;1.51;100.00
71306;BME280;59097;46.858;18.632;2022-11-20T01:29:46;100073.03;;;1.54;100.00
71306;BME280;59097;46.858;18.632;2022-11-20T01:32:14;100087.63;;;1.57;100.00
71306;BME280;59097;46.858;18.632;2022-11-20T01:35:12;100080.44;;;1.59;100.00
71306;BME280;59097;46.858;18.632;2022-11-20T01:37:53;100083.63;;;1.43;100.00
71306;BME280;59097;46.858;18.632;2022-11-20T01:40:19;100085.28;;;1.44;100.00
71306;BME280;59097;46.858;18.632;2022-11-20T01:42:53;100044.03;;;1.38;100.00
71306;BME280;59097;46.858;18.632;2022-11-20T01:48:28;100077.03;;;1.68;100.00
71306;BME280;59097;46.858;18.632;2022-11-20T01:51:04;100074.75;;;2.29;100.00
71306;BME280;59097;46.858;18.632;2022-11-20T01:53:36;100074.75;;;2.29;100.00
71306;BME280;59097;46.858;18.632;2022-11-20T01:56:08;100081.00;;;1.62;100.00
71306;BME280;59097;46.858;18.632;2022-11-20T01:58:42;100085.56;;;1.60;100.00
71306;BME280;59097;46.858;18.632;2022-11-20T02:01:13;100090.34;;;1.65;100.00
71306;BME280;59097;46.858;18.632;2022-11-20T02:03:42;100085.28;;;1.54;100.00
71306;BME280;59097;46.858;18.632;2022-11-20T02:06:35;100064.78;;;1.59;100.00
71306;BME280;59097;46.858;18.632;2022-11-20T02:09:06;100070.03;;;1.49;100.00
71306;BME280;59097;46.858;18.632;2022-11-20T02:11:49;100059.69;;;1.57;100.00
71306;BME280;59097;46.858;18.632;2022-11-20T02:14:31;100058.75;;;1.49;100.00
71306;BME280;59097;46.858;18.632;2022-11-20T02:17:13;100071.25;;;1.55;100.00
71306;BME280;59097;46.858;18.632;2022-11-20T02:19:39;100071.25;;;1.55;100.00
71306;BME280;59097;46.858;18.632;2022-11-20T02:22:15;100076.47;;;1.55;100.00
71306;BME280;59097;46.858;18.632;2022-11-20T02:24:43;100059.94;;;1.64;100.00
71306;BME280;59097;46.858;18.632;2022-11-20T02:27:13;100058.88;;;1.47;100.00
71306;BME280;59097;46.858;18.632;2022-11-20T02:29:48;100060.94;;;1.63;100.00
71306;BME280;59097;46.858;18.632;2022-11-20T02:32:32;100063.34;;;2.30;100.00
71306;BME280;59097;46.858;18.632;2022-11-20T02:37:37;100068.38;;;1.58;100.00
71306;BME280;59097;46.858;18.632;2022-11-20T02:40:07;100065.19;;;1.64;100.00
71306;BME280;59097;46.858;18.632;2022-11-20T02:42:36;100058.31;;;1.63;100.00
71306;BME280;59097;46.858;18.632;2022-11-20T02:45:05;100061.88;;;1.62;100.00
71306;BME280;59097;46.858;18.632;2022-11-20T02:47:33;100061.47;;;1.57;100.00
71306;BME280;59097;46.858;18.632;2022-11-20T02:50:02;100055.56;;;1.55;100.00
71306;BME280;59097;46.858;18.632;2022-11-20T02:52:31;100071.25;;;1.55;100.00
71306;BME280;59097;46.858;18.632;2022-11-20T02:55:13;100054.06;;;1.52;100.00
71306;BME280;59097;46.858;18.632;2022-11-20T02:58:10;100069.88;;;1.41;100.00
71306;BME280;59097;46.858;18.632;2022-11-20T03:00:52;100059.56;;;1.49;100.00
71306;BME280;59097;46.858;18.632;2022-11-20T03:03:18;100076.88;;;1.60;100.00
71306;BME280;59097;46.858;18.632;2022-11-20T03:05:44;100074.56;;;1.57;100.00
71306;BME280;59097;46.858;18.632;2022-11-20T03:08:10;100082.13;;;1.60;100.00
71306;BME280;59097;46.858;18.632;2022-11-20T03:10:37;100091.06;;;1.57;100.00
71306;BME280;59097;46.858;18.632;2022-11-20T03:13:09;100106.97;;;2.29;100.00
71306;BME280;59097;46.858;18.632;2022-11-20T03:15:37;100106.97;;;2.29;100.00
71306;BME280;59097;46.858;18.632;2022-11-20T03:18:05;100116.75;;;1.71;100.00
71306;BME280;59097;46.858;18.632;2022-11-20T03:20:33;100111.81;;;1.68;100.00
71306;BME280;59097;46.858;18.632;2022-11-20T03:23:02;100106.16;;;1.73;100.00
71306;BME280;59097;46.858;18.632;2022-11-20T03:25:30;100089.41;;;1.66;100.00
71306;BME280;59097;46.858;18.632;2022-11-20T03:27:58;100073.16;;;1.72;100.00
71306;BME280;59097;46.858;18.632;2022-11-20T03:30:26;100064.06;;;1.76;100.00
71306;BME280;59097;46.858;18.632;2022-11-20T03:32:57;100050.44;;;1.72;100.00
71306;BME280;59097;46.858;18.632;2022-11-20T03:35:39;100048.66;;;1.73;100.00
71306;BME280;59097;46.858;18.632;2022-11-20T03:38:20;100061.47;;;1.66;100.00
71306;BME280;59097;46.858;18.632;2022-11-20T03:40:46;100053.34;;;1.69;100.00
71306;BME280;59097;46.858;18.632;2022-11-20T03:43:13;100042.06;;;1.69;100.00
71306;BME280;59097;46.858;18.632;2022-11-20T03:45:39;100031.47;;;1.70;100.00
71306;BME280;59097;46.858;18.632;2022-11-20T03:48:05;100018.72;;;1.58;100.00
71306;BME280;59097;46.858;18.632;2022-11-20T03:50:31;100017.88;;;1.57;100.00
71306;BME280;59097;46.858;18.632;2022-11-20T03:53:03;100025.62;;;2.23;100.00
71306;BME280;59097;46.858;18.632;2022-11-20T03:55:32;100025.62;;;2.23;100.00
71306;BME280;59097;46.858;18.632;2022-11-20T03:58:00;100011.81;;;1.66;100.00
71306;BME280;59097;46.858;18.632;2022-11-20T04:00:28;100009.91;;;1.59;100.00
71306;BME280;59097;46.858;18.632;2022-11-20T04:03:00;100000.69;;;1.55;100.00
71306;BME280;59097;46.858;18.632;2022-11-20T04:05:28;100000.47;;;1.48;100.00
71306;BME280;59097;46.858;18.632;2022-11-20T04:07:57;100003.88;;;1.49;100.00
71306;BME280;59097;46.858;18.632;2022-11-20T04:10:25;100006.59;;;1.57;100.00
71306;BME280;59097;46.858;18.632;2022-11-20T04:12:53;99995.09;;;1.50;100.00
71306;BME280;59097;46.858;18.632;2022-11-20T04:15:21;100008.97;;;1.50;100.00
71306;BME280;59097;46.858;18.632;2022-11-20T04:18:04;100014.31;;;1.58;100.00
71306;BME280;59097;46.858;18.632;2022-11-20T04:20:45;100016.81;;;1.50;100.00
71306;BME280;59097;46.858;18.632;2022-11-20T04:23:11;99988.78;;;1.43;100.00
71306;BME280;59097;46.858;18.632;2022-11-20T04:25:37;100011.41;;;1.61;100.00
71306;BME280;59097;46.858;18.632;2022-11-20T04:28:03;100007.44;;;1.57;100.00
71306;BME280;59097;46.858;18.632;2022-11-20T04:30:30;100000.69;;;1.55;100.00
71306;BME280;59097;46.858;18.632;2022-11-20T04:32:56;100003.03;;;1.58;100.00
71306;BME280;59097;46.858;18.632;2022-11-20T04:35:29;99992.34;;;2.15;100.00
71306;BME280;59097;46.858;18.632;2022-11-20T04:37:57;99992.34;;;2.15;100.00
71306;BME280;59097;46.858;18.632;2022-11-20T04:40:25;99997.25;;;1.54;100.00
71306;BME280;59097;46.858;18.632;2022-11-20T04:42:54;100005.38;;;1.61;100.00
71306;BME280;59097;46.858;18.632;2022-11-20T04:45:23;99996.59;;;1.52;100.00
71306;BME280;59097;46.858;18.632;2022-11-20T04:47:50;100017.34;;;1.63;100.00
71306;BME280;59097;46.858;18.632;2022-11-20T04:50:18;100028.31;;;1.67;100.00
71306;BME280;59097;46.858;18.632;2022-11-20T04:52:46;100012.06;;;1.73;100.00
71306;BME280;59097;46.858;18.632;2022-11-20T04:55:14;99999.53;;;1.76;100.00
71306;BME280;59097;46.858;18.632;2022-11-20T04:57:43;99981.09;;;1.78;100.00
71306;BME280;59097;46.858;18.632;2022-11-20T05:00:39;99986.06;;;1.71;100.00
71306;BME280;59097;46.858;18.632;2022-11-20T05:03:21;100013.69;;;1.74;100.00
71306;BME280;59097;46.858;18.632;2022-11-20T05:05:47;100022.66;;;1.71;100.00
71306;BME280;59097;46.858;18.632;2022-11-20T05:08:13;100013.41;;;1.77;100.00
71306;BME280;59097;46.858;18.632;2022-11-20T05:10:39;99999.13;;;1.81;100.00
71306;BME280;59097;46.858;18.632;2022-11-20T05:13:05;99994.84;;;1.80;100.00
71306;BME280;59097;46.858;18.632;2022-11-20T05:15:32;99994.84;;;1.80;100.00
71306;BME280;59097;46.858;18.632;2022-11-20T05:17:58;99986.59;;;1.75;100.00
71306;BME280;59097;46.858;18.632;2022-11-20T05:20:30;99978.72;;;2.39;100.00
71306;BME280;59097;46.858;18.632;2022-11-20T05:22:59;99978.72;;;2.39;100.00
71306;BME280;59097;46.858;18.632;2022-11-20T05:25:27;99980.53;;;1.74;100.00
71306;BME280;59097;46.858;18.632;2022-11-20T05:27:55;99984.94;;;1.74;100.00
71306;BME280;59097;46.858;18.632;2022-11-20T05:30:23;99979.72;;;1.74;100.00
71306;BME280;59097;46.858;18.632;2022-11-20T05:32:51;99977.81;;;1.76;100.00
71306;BME280;59097;46.858;18.632;2022-11-20T05:35:19;99983.84;;;1.76;100.00
71306;BME280;59097;46.858;18.632;2022-11-20T05:37:47;99994.72;;;1.72;100.00
71306;BME280;59097;46.858;18.632;2022-11-20T05:40:15;99997.06;;;1.75;100.00
71306;BME280;59097;46.858;18.632;2022-11-20T05:42:58;99990.06;;;1.75;100.00
71306;BME280;59097;46.858;18.632;2022-11-20T05:45:55;99970.75;;;1.76;100.00
71306;BME280;59097;46.858;18.632;2022-11-20T05:48:40;99970.69;;;1.68;100.00
71306;BME280;59097;46.858;18.632;2022-11-20T05:51:09;99984.94;;;1.74;100.00
71306;BME280;59097;46.858;18.632;2022-11-20T05:53:36;99996.22;;;1.74;100.00
71306;BME280;59097;46.858;18.632;2022-11-20T05:56:05;99991.44;;;1.70;100.00
71306;BME280;59097;46.858;18.632;2022-11-20T05:58:32;100000.81;;;1.63;100.00
71306;BME280;59097;46.858;18.632;2022-11-20T06:01:11;100012.63;;;2.31;100.00
71306;BME280;59097;46.858;18.632;2022-11-20T06:03:41;100012.63;;;2.31;100.00
71306;BME280;59097;46.858;18.632;2022-11-20T06:06:15;100019.34;;;1.69;100.00
71306;BME280;59097;46.858;18.632;2022-11-20T06:08:44;100017.31;;;1.73;100.00
71306;BME280;59097;46.858;18.632;2022-11-20T06:11:13;100019.75;;;1.74;100.00
71306;BME280;59097;46.858;18.632;2022-11-20T06:13:41;100018.12;;;1.73;100.00
71306;BME280;59097;46.858;18.632;2022-11-20T06:16:11;100014.00;;;1.71;100.00
71306;BME280;59097;46.858;18.632;2022-11-20T06:18:40;100034.22;;;1.78;100.00
71306;BME280;59097;46.858;18.632;2022-11-20T06:21:14;100026.59;;;1.85;100.00
71306;BME280;59097;46.858;18.632;2022-11-20T06:24:11;100036.22;;;1.84;100.00
71306;BME280;59097;46.858;18.632;2022-11-20T06:27:07;100047.09;;;1.89;100.00
71306;BME280;59097;46.858;18.632;2022-11-20T06:29:50;100050.69;;;1.88;100.00
71306;BME280;59097;46.858;18.632;2022-11-20T06:32:16;100058.78;;;1.95;100.00
71306;BME280;59097;46.858;18.632;2022-11-20T06:34:42;100065.00;;;1.94;100.00
71306;BME280;59097;46.858;18.632;2022-11-20T06:37:08;100066.63;;;1.95;100.00
71306;BME280;59097;46.858;18.632;2022-11-20T06:39:35;100060.87;;;1.92;100.00
71306;BME280;59097;46.858;18.632;2022-11-20T06:42:07;100070.28;;;2.66;100.00
71306;BME280;59097;46.858;18.632;2022-11-20T06:44:35;100070.28;;;2.66;100.00
71306;BME280;59097;46.858;18.632;2022-11-20T06:47:04;100083.50;;;2.10;100.00
71306;BME280;59097;46.858;18.632;2022-11-20T06:49:32;100080.19;;;2.08;100.00
71306;BME280;59097;46.858;18.632;2022-11-20T06:52:02;100073.56;;;2.14;100.00
71306;BME280;59097;46.858;18.632;2022-11-20T06:54:30;100071.09;;;2.12;100.00
71306;BME280;59097;46.858;18.632;2022-11-20T06:56:58;100072.31;;;2.18;100.00
71306;BME280;59097;46.858;18.632;2022-11-20T06:59:26;100050.87;;;2.14;100.00
71306;BME280;59097;46.858;18.632;2022-11-20T07:01:54;100073.09;;;2.28;100.00
71306;BME280;59097;46.858;18.632;2022-11-20T07:04:22;100079.81;;;2.30;100.00
71306;BME280;59097;46.858;18.632;2022-11-20T07:07:05;100076.81;;;2.25;100.00
71306;BME280;59097;46.858;18.632;2022-11-20T07:09:47;100083.94;;;2.33;100.00
71306;BME280;59097;46.858;18.632;2022-11-20T07:12:13;100075.69;;;2.37;100.00
71306;BME280;59097;46.858;18.632;2022-11-20T07:14:40;100073.75;;;2.39;100.00
71306;BME280;59097;46.858;18.632;2022-11-20T07:17:06;100089.19;;;2.33;100.00
71306;BME280;59097;46.858;18.632;2022-11-20T07:19:32;100082.31;;;2.32;100.00
71306;BME280;59097;46.858;18.632;2022-11-20T07:22:05;100080.38;;;3.06;100.00
71306;BME280;59097;46.858;18.632;2022-11-20T07:24:33;100080.38;;;3.06;100.00
71306;BME280;59097;46.858;18.632;2022-11-20T07:27:02;100091.06;;;2.40;100.00
71306;BME280;59097;46.858;18.632;2022-11-20T07:29:31;100084.37;;;2.55;100.00
71306;BME280;59097;46.858;18.632;2022-11-20T07:32:00;100079.47;;;2.52;100.00
71306;BME280;59097;46.858;18.632;2022-11-20T07:34:28;100067.87;;;2.55;100.00
71306;BME280;59097;46.858;18.632;2022-11-20T07:36:56;100061.81;;;2.54;100.00
71306;BME280;59097;46.858;18.632;2022-11-20T07:39:24;100063.87;;;2.51;100.00
71306;BME280;59097;46.858;18.632;2022-11-20T07:41:52;100061.25;;;2.61;100.00
71306;BME280;59097;46.858;18.632;2022-11-20T07:44:20;100057.06;;;2.68;100.00
71306;BME280;59097;46.858;18.632;2022-11-20T07:47:02;100056.59;;;2.72;100.00
71306;BME280;59097;46.858;18.632;2022-11-20T07:49:28;100050.94;;;2.77;100.00
71306;BME280;59097;46.858;18.632;2022-11-20T07:51:54;100038.66;;;2.77;100.00
71306;BME280;59097;46.858;18.632;2022-11-20T07:54:21;100044.72;;;2.78;100.00
71306;BME280;59097;46.858;18.632;2022-11-20T07:56:50;100047.63;;;2.75;100.00
71306;BME280;59097;46.858;18.632;2022-11-20T07:59:17;100057.06;;;2.85;100.00
71306;BME280;59097;46.858;18.632;2022-11-20T08:01:49;100055.75;;;3.60;100.00
71306;BME280;59097;46.858;18.632;2022-11-20T08:04:18;100055.75;;;3.60;100.00
71306;BME280;59097;46.858;18.632;2022-11-20T08:06:46;100059.03;;;3.01;100.00
71306;BME280;59097;46.858;18.632;2022-11-20T08:09:14;100066.06;;;3.00;100.00
71306;BME280;59097;46.858;18.632;2022-11-20T08:11:42;100077.06;;;3.04;100.00
71306;BME280;59097;46.858;18.632;2022-11-20T08:14:29;100077.22;;;3.02;100.00
71306;BME280;59097;46.858;18.632;2022-11-20T08:16:57;100073.47;;;3.05;100.00
71306;BME280;59097;46.858;18.632;2022-11-20T08:19:25;100073.75;;;3.19;100.00
71306;BME280;59097;46.858;18.632;2022-11-20T08:21:53;100084.25;;;3.19;100.00
71306;BME280;59097;46.858;18.632;2022-11-20T08:24:35;100081.84;;;3.26;100.00
71306;BME280;59097;46.858;18.632;2022-11-20T08:27:17;100084.19;;;3.29;100.00
71306;BME280;59097;46.858;18.632;2022-11-20T08:29:43;100087.09;;;3.26;100.00
71306;BME280;59097;46.858;18.632;2022-11-20T08:32:09;100097.87;;;3.41;100.00
71306;BME280;59097;46.858;18.632;2022-11-20T08:34:35;100102.66;;;3.45;100.00
71306;BME280;59097;46.858;18.632;2022-11-20T08:37:02;100113.75;;;3.57;100.00
71306;BME280;59097;46.858;18.632;2022-11-20T08:39:34;100108.81;;;4.31;98.20
71306;BME280;59097;46.858;18.632;2022-11-20T08:42:07;100108.81;;;4.31;98.20
71306;BME280;59097;46.858;18.632;2022-11-20T08:44:35;100114.59;;;3.65;100.00
71306;BME280;59097;46.858;18.632;2022-11-20T08:47:03;100111.28;;;3.81;100.00
71306;BME280;59097;46.858;18.632;2022-11-20T08:49:31;100119.69;;;3.85;100.00
71306;BME280;59097;46.858;18.632;2022-11-20T08:51:59;100097.44;;;3.71;99.31
71306;BME280;59097;46.858;18.632;2022-11-20T08:54:27;100111.00;;;3.84;100.00
71306;BME280;59097;46.858;18.632;2022-11-20T08:56:55;100109.44;;;3.99;99.32
71306;BME280;59097;46.858;18.632;2022-11-20T08:59:23;100110.22;;;3.92;96.11
71306;BME280;59097;46.858;18.632;2022-11-20T09:02:11;100110.81;;;4.03;97.36
71306;BME280;59097;46.858;18.632;2022-11-20T09:05:08;100109.97;;;4.03;99.08
71306;BME280;59097;46.858;18.632;2022-11-20T09:07:50;100113.97;;;4.15;99.44
71306;BME280;59097;46.858;18.632;2022-11-20T09:10:16;100120.25;;;4.22;98.26
71306;BME280;59097;46.858;18.632;2022-11-20T09:12:42;100108.47;;;4.26;98.56
71306;BME280;59097;46.858;18.632;2022-11-20T09:15:09;100121.66;;;4.34;98.36
71306;BME280;59097;46.858;18.632;2022-11-20T09:17:35;100130.31;;;4.34;97.28
71306;BME280;59097;46.858;18.632;2022-11-20T09:20:08;100132.22;;;4.92;96.13
71306;BME280;59097;46.858;18.632;2022-11-20T09:22:39;100132.22;;;4.92;96.13
71306;BME280;59097;46.858;18.632;2022-11-20T09:25:07;100130.66;;;4.31;97.13
71306;BME280;59097;46.858;18.632;2022-11-20T09:27:36;100129.72;;;4.40;97.58
71306;BME280;59097;46.858;18.632;2022-11-20T09:30:04;100133.34;;;4.14;97.68
71306;BME280;59097;46.858;18.632;2022-11-20T09:32:32;100122.31;;;4.36;98.12
71306;BME280;59097;46.858;18.632;2022-11-20T09:35:01;100117.41;;;4.41;100.00
71306;BME280;59097;46.858;18.632;2022-11-20T09:37:29;100121.41;;;4.53;98.99
71306;BME280;59097;46.858;18.632;2022-11-20T09:39:57;100109.19;;;4.36;100.00
71306;BME280;59097;46.858;18.632;2022-11-20T09:46:20;100059.22;;;4.62;100.00
71306;BME280;59097;46.858;18.632;2022-11-20T09:57:00;100073.66;;;5.48;96.73
71306;BME280;59097;46.858;18.632;2022-11-20T09:59:45;100073.66;;;5.48;96.73
71306;BME280;59097;46.858;18.632;2022-11-20T10:08:25;100093.63;;;4.92;100.00
71306;BME280;59097;46.858;18.632;2022-11-20T10:11:44;100097.97;;;5.26;98.01
71306;BME280;59097;46.858;18.632;2022-11-20T10:17:08;100085.47;;;5.52;97.06
71306;BME280;59097;46.858;18.632;2022-11-20T10:25:00;100066.31;;;6.22;95.71
71306;BME280;59097;46.858;18.632;2022-11-20T10:30:14;100072.31;;;7.09;90.05
71306;BME280;59097;46.858;18.632;2022-11-20T10:32:48;100065.06;;;5.78;96.30
71306;BME280;59097;46.858;18.632;2022-11-20T10:35:21;100063.44;;;5.77;97.31
71306;BME280;59097;46.858;18.632;2022-11-20T10:37:56;100075.91;;;5.75;96.57
71306;BME280;59097;46.858;18.632;2022-11-20T10:40:34;100078.88;;;5.96;98.08
71306;BME280;59097;46.858;18.632;2022-11-20T10:43:32;100092.06;;;5.72;98.97
71306;BME280;59097;46.858;18.632;2022-11-20T10:46:05;100096.00;;;5.52;99.06
71306;BME280;59097;46.858;18.632;2022-11-20T10:48:37;100093.03;;;5.63;96.46
71306;BME280;59097;46.858;18.632;2022-11-20T10:51:37;100104.06;;;5.75;95.75
71306;BME280;59097;46.858;18.632;2022-11-20T10:54:23;100107.34;;;5.68;96.18
71306;BME280;59097;46.858;18.632;2022-11-20T11:00:10;100102.91;;;5.69;97.04
71306;BME280;59097;46.858;18.632;2022-11-20T11:02:48;100095.50;;;5.40;100.00
71306;BME280;59097;46.858;18.632;2022-11-20T11:07:57;100089.72;;;6.09;99.85
71306;BME280;59097;46.858;18.632;2022-11-20T11:13:27;100086.16;;;5.62;100.00
71306;BME280;59097;46.858;18.632;2022-11-20T11:15:56;100073.66;;;5.64;100.00
71306;BME280;59097;46.858;18.632;2022-11-20T11:18:31;100060.19;;;5.59;100.00
71306;BME280;59097;46.858;18.632;2022-11-20T11:21:02;100062.12;;;5.65;100.00
71306;BME280;59097;46.858;18.632;2022-11-20T11:23:36;100044.37;;;5.59;100.00
71306;BME280;59097;46.858;18.632;2022-11-20T11:26:33;100041.13;;;5.57;100.00
71306;BME280;59097;46.858;18.632;2022-11-20T11:29:17;100043.25;;;5.61;100.00
71306;BME280;59097;46.858;18.632;2022-11-20T11:31:43;100048.94;;;5.81;100.00
71306;BME280;59097;46.858;18.632;2022-11-20T11:34:13;100048.00;;;5.90;100.00
71306;BME280;59097;46.858;18.632;2022-11-20T11:36:41;100046.97;;;5.99;100.00
71306;BME280;59097;46.858;18.632;2022-11-20T11:39:14;100040.72;;;6.00;100.00
71306;BME280;59097;46.858;18.632;2022-11-20T11:41:48;100058.50;;;6.45;99.61
71306;BME280;59097;46.858;18.632;2022-11-20T11:44:23;100058.50;;;6.45;99.61
71306;BME280;59097;46.858;18.632;2022-11-20T11:47:21;100056.00;;;6.05;100.00
71306;BME280;59097;46.858;18.632;2022-11-20T11:50:27;100031.59;;;6.19;100.00
71306;BME280;59097;46.858;18.632;2022-11-20T11:55:31;100050.09;;;6.42;99.53
71306;BME280;59097;46.858;18.632;2022-11-20T11:58:53;100049.47;;;6.40;98.68
71306;BME280;59097;46.858;18.632;2022-11-20T12:01:07;100049.38;;;6.17;100.00
71306;BME280;59097;46.858;18.632;2022-11-20T12:03:39;100053.69;;;6.10;100.00
71306;BME280;59097;46.858;18.632;2022-11-20T12:06:13;100059.41;;;6.21;100.00
71306;BME280;59097;46.858;18.632;2022-11-20T12:11:53;100062.09;;;6.83;96.81
71306;BME280;59097;46.858;18.632;2022-11-20T12:14:37;100062.09;;;6.83;96.81
71306;BME280;59097;46.858;18.632;2022-11-20T12:17:10;100064.75;;;6.44;100.00
71306;BME280;59097;46.858;18.632;2022-11-20T12:19:40;100063.03;;;6.28;100.00
71306;BME280;59097;46.858;18.632;2022-11-20T12:22:36;100069.16;;;6.52;100.00
71306;BME280;59097;46.858;18.632;2022-11-20T12:25:19;100062.84;;;6.30;100.00
71306;BME280;59097;46.858;18.632;2022-11-20T12:28:12;100061.88;;;6.23;100.00
71306;BME280;59097;46.858;18.632;2022-11-20T12:36:37;100063.50;;;6.32;100.00
71306;BME280;59097;46.858;18.632;2022-11-20T12:39:41;100054.41;;;6.43;100.00
71306;BME280;59097;46.858;18.632;2022-11-20T12:42:29;100046.00;;;6.39;100.00
71306;BME280;59097;46.858;18.632;2022-11-20T12:45:34;100035.84;;;6.36;99.88
71306;BME280;59097;46.858;18.632;2022-11-20T13:02:05;100041.84;;;6.06;100.00
71306;BME280;59097;46.858;18.632;2022-11-20T13:07:21;100020.47;;;6.01;100.00
71306;BME280;59097;46.858;18.632;2022-11-20T13:09:53;100015.34;;;6.15;100.00
71306;BME280;59097;46.858;18.632;2022-11-20T13:12:33;100011.03;;;6.22;100.00
71306;BME280;59097;46.858;18.632;2022-11-20T13:15:38;100005.78;;;6.14;100.00
71306;BME280;59097;46.858;18.632;2022-11-20T13:18:11;100007.28;;;6.09;100.00
71306;BME280;59097;46.858;18.632;2022-11-20T13:20:45;100006.63;;;6.15;100.00
71306;BME280;59097;46.858;18.632;2022-11-20T13:23:23;100007.09;;;6.18;100.00
71306;BME280;59097;46.858;18.632;2022-11-20T13:25:50;99999.66;;;6.22;99.33
71306;BME280;59097;46.858;18.632;2022-11-20T13:30:55;100004.13;;;6.83;95.70
71306;BME280;59097;46.858;18.632;2022-11-20T13:33:36;100004.13;;;6.83;95.70
71306;BME280;59097;46.858;18.632;2022-11-20T13:36:05;100003.66;;;6.18;97.96
71306;BME280;59097;46.858;18.632;2022-11-20T13:38:47;100005.78;;;6.14;97.48
71306;BME280;59097;46.858;18.632;2022-11-20T13:41:31;100000.84;;;6.19;99.26
71306;BME280;59097;46.858;18.632;2022-11-20T13:44:15;100000.34;;;6.16;98.33
71306;BME280;59097;46.858;18.632;2022-11-20T13:46:50;100005.50;;;6.01;99.97
71306;BME280;59097;46.858;18.632;2022-11-20T13:52:01;100010.56;;;6.11;99.24
71306;BME280;59097;46.858;18.632;2022-11-20T13:58:30;100018.84;;;6.08;98.01
71306;BME280;59097;46.858;18.632;2022-11-20T14:01:16;100026.91;;;5.98;100.00
71306;BME280;59097;46.858;18.632;2022-11-20T14:03:44;100021.31;;;5.93;99.99
71306;BME280;59097;46.858;18.632;2022-11-20T14:06:14;100033.34;;;5.88;100.00
71306;BME280;59097;46.858;18.632;2022-11-20T14:08:52;100037.44;;;6.45;98.21
71306;BME280;59097;46.858;18.632;2022-11-20T14:11:24;100037.44;;;6.45;98.21
71306;BME280;59097;46.858;18.632;2022-11-20T14:13:56;100028.75;;;5.73;100.00
71306;BME280;59097;46.858;18.632;2022-11-20T14:16:27;100038.75;;;5.78;100.00
71306;BME280;59097;46.858;18.632;2022-11-20T14:18:57;100025.78;;;5.77;100.00
71306;BME280;59097;46.858;18.632;2022-11-20T14:21:29;100028.91;;;5.88;100.00
71306;BME280;59097;46.858;18.632;2022-11-20T14:24:05;100029.22;;;5.85;100.00
71306;BME280;59097;46.858;18.632;2022-11-20T14:26:33;100021.66;;;5.82;100.00
71306;BME280;59097;46.858;18.632;2022-11-20T14:31:40;100029.22;;;5.85;100.00
71306;BME280;59097;46.858;18.632;2022-11-20T14:34:28;100022.63;;;5.81;100.00
71306;BME280;59097;46.858;18.632;2022-11-20T14:36:58;100036.16;;;5.86;100.00